createdAt,value
2022-11-28T00:00:19.924Z,1008.19
2022-11-28T00:01:19.943Z,1008.19
2022-11-28T00:02:20.109Z,1008.11
2022-11-28T00:03:25.944Z,1008.15
2022-11-28T00:04:20.028Z,1008.14
2022-11-28T00:05:19.907Z,1008.16
2022-11-28T00:06:19.920Z,1008.15
2022-11-28T00:07:19.998Z,1008.09
2022-11-28T00:08:19.888Z,1008.01
2022-11-28T00:09:19.904Z,1008.04
2022-11-28T00:10:19.901Z,1008.07
2022-11-28T00:11:19.906Z,1008.08
2022-11-28T00:12:19.892Z,1008.02
2022-11-28T00:13:19.891Z,1008.03
2022-11-28T00:14:19.865Z,1008.03
2022-11-28T00:15:19.868Z,1008.03
2022-11-28T00:16:19.911Z,1008.03
2022-11-28T00:17:19.875Z,1007.99
2022-11-28T00:18:19.854Z,1007.96
2022-11-28T00:19:19.867Z,1007.97
2022-11-28T00:20:19.948Z,1007.95
2022-11-28T00:21:19.845Z,1007.91
2022-11-28T00:22:19.832Z,1007.92
2022-11-28T00:23:19.834Z,1007.88
2022-11-28T00:24:19.836Z,1007.90
2022-11-28T00:25:19.831Z,1007.88
2022-11-28T00:26:19.833Z,1007.80
2022-11-28T00:27:19.834Z,1007.84
2022-11-28T00:28:19.805Z,1007.83
2022-11-28T00:29:19.817Z,1007.82
2022-11-28T00:30:19.794Z,1007.92
2022-11-28T00:31:19.847Z,1007.83
2022-11-28T00:32:19.786Z,1007.80
2022-11-28T00:33:19.803Z,1007.85
2022-11-28T00:34:19.783Z,1007.87
2022-11-28T00:35:19.797Z,1007.88
2022-11-28T00:36:19.893Z,1007.87
2022-11-28T00:37:19.780Z,1007.87
2022-11-28T00:38:19.823Z,1007.77
2022-11-28T00:39:19.816Z,1007.73
2022-11-28T00:40:19.753Z,1007.74
2022-11-28T00:41:19.755Z,1007.74
2022-11-28T00:42:19.743Z,1007.74
2022-11-28T00:43:19.754Z,1007.74
2022-11-28T00:44:19.737Z,1007.69
2022-11-28T00:45:19.751Z,1007.69
2022-11-28T00:46:19.790Z,1007.70
2022-11-28T00:47:19.749Z,1007.69
2022-11-28T00:48:19.733Z,1007.68
2022-11-28T00:49:19.736Z,1007.65
2022-11-28T00:50:19.720Z,1007.65
2022-11-28T00:51:19.713Z,1007.62
2022-11-28T00:52:19.827Z,1007.58
2022-11-28T00:53:19.711Z,1007.54
2022-11-28T00:54:19.704Z,1007.57
2022-11-28T00:55:19.698Z,1007.54
2022-11-28T00:56:19.688Z,1007.55
2022-11-28T00:57:19.695Z,1007.50
2022-11-28T00:58:19.690Z,1007.44
2022-11-28T00:59:19.688Z,1007.51
2022-11-28T01:00:19.678Z,1007.51
2022-11-28T01:01:19.735Z,1007.51
2022-11-28T01:02:19.739Z,1007.47
2022-11-28T01:03:19.662Z,1007.46
2022-11-28T01:04:19.668Z,1007.49
2022-11-28T01:05:19.672Z,1007.46
2022-11-28T01:06:19.638Z,1007.43
2022-11-28T01:07:19.712Z,1007.48
2022-11-28T01:08:19.755Z,1007.44
2022-11-28T01:09:19.636Z,1007.46
2022-11-28T01:10:19.652Z,1007.48
2022-11-28T01:11:19.640Z,1007.47
2022-11-28T01:12:19.616Z,1007.45
2022-11-28T01:13:19.618Z,1007.49
2022-11-28T01:14:19.632Z,1007.50
2022-11-28T01:15:19.611Z,1007.48
2022-11-28T01:16:19.671Z,1007.45
2022-11-28T01:17:19.639Z,1007.43
2022-11-28T01:18:19.588Z,1007.43
2022-11-28T01:19:19.593Z,1007.42
2022-11-28T01:20:19.602Z,1007.37
2022-11-28T01:21:19.586Z,1007.41
2022-11-28T01:22:19.579Z,1007.45
2022-11-28T01:23:19.590Z,1007.38
2022-11-28T01:24:19.698Z,1007.46
2022-11-28T01:25:19.564Z,1007.44
2022-11-28T01:26:19.558Z,1007.38
2022-11-28T01:27:19.554Z,1007.41
2022-11-28T01:28:19.561Z,1007.39
2022-11-28T01:29:19.545Z,1007.32
2022-11-28T01:30:19.558Z,1007.29
2022-11-28T01:31:19.592Z,1007.28
2022-11-28T01:32:19.536Z,1007.28
2022-11-28T01:33:19.551Z,1007.24
2022-11-28T01:34:19.543Z,1007.22
2022-11-28T01:35:19.528Z,1007.21
2022-11-28T01:36:19.516Z,1007.20
2022-11-28T01:37:19.515Z,1007.17
2022-11-28T01:38:19.511Z,1007.20
2022-11-28T01:39:19.515Z,1007.19
2022-11-28T01:40:19.620Z,1007.14
2022-11-28T01:41:19.507Z,1007.16
2022-11-28T01:42:19.494Z,1007.16
2022-11-28T01:43:19.497Z,1007.16
2022-11-28T01:44:19.496Z,1007.11
2022-11-28T01:45:19.478Z,1007.17
2022-11-28T01:46:19.571Z,1007.21
2022-11-28T01:47:19.471Z,1007.16
2022-11-28T01:48:19.466Z,1007.16
2022-11-28T01:49:19.463Z,1007.14
2022-11-28T01:50:19.459Z,1007.08
2022-11-28T01:51:19.449Z,1007.02
2022-11-28T01:52:19.470Z,1006.99
2022-11-28T01:53:19.441Z,1006.95
2022-11-28T01:54:19.441Z,1006.87
2022-11-28T01:55:19.438Z,1006.85
2022-11-28T01:56:19.574Z,1006.92
2022-11-28T01:57:19.440Z,1006.99
2022-11-28T01:58:19.427Z,1006.99
2022-11-28T01:59:19.416Z,1006.91
2022-11-28T02:00:19.433Z,1006.88
2022-11-28T02:01:19.526Z,1006.84
2022-11-28T02:02:19.510Z,1006.82
2022-11-28T02:03:19.398Z,1006.77
2022-11-28T02:04:19.403Z,1006.74
2022-11-28T02:05:19.402Z,1006.80
2022-11-28T02:06:19.417Z,1006.76
2022-11-28T02:07:19.474Z,1006.82
2022-11-28T02:08:19.386Z,1006.83
2022-11-28T02:09:19.412Z,1006.77
2022-11-28T02:10:19.387Z,1006.73
2022-11-28T02:11:19.379Z,1006.70
2022-11-28T02:12:19.493Z,1006.72
2022-11-28T02:13:19.374Z,1006.68
2022-11-28T02:14:19.380Z,1006.71
2022-11-28T02:15:19.365Z,1006.73
2022-11-28T02:16:19.423Z,1006.76
2022-11-28T02:17:19.352Z,1006.74
2022-11-28T02:18:19.348Z,1006.74
2022-11-28T02:19:19.337Z,1006.76
2022-11-28T02:20:19.342Z,1006.71
2022-11-28T02:21:19.326Z,1006.69
2022-11-28T02:22:19.318Z,1006.70
2022-11-28T02:23:19.315Z,1006.72
2022-11-28T02:24:19.311Z,1006.76
2022-11-28T02:25:19.317Z,1006.83
2022-11-28T02:26:19.317Z,1006.86
2022-11-28T02:27:19.309Z,1006.90
2022-11-28T02:28:19.412Z,1006.92
2022-11-28T02:29:19.298Z,1006.92
2022-11-28T02:30:19.290Z,1006.95
2022-11-28T02:31:19.377Z,1006.97
2022-11-28T02:32:19.284Z,1006.95
2022-11-28T02:33:19.283Z,1006.91
2022-11-28T02:34:19.287Z,1006.88
2022-11-28T02:35:19.258Z,1006.90
2022-11-28T02:36:19.275Z,1006.93
2022-11-28T02:37:19.256Z,1006.92
2022-11-28T02:38:19.262Z,1006.90
2022-11-28T02:39:19.244Z,1006.88
2022-11-28T02:40:19.253Z,1006.83
2022-11-28T02:41:19.244Z,1006.81
2022-11-28T02:42:19.236Z,1006.75
2022-11-28T02:43:19.236Z,1006.66
2022-11-28T02:44:19.343Z,1006.60
2022-11-28T02:45:19.218Z,1006.66
2022-11-28T02:46:19.263Z,1006.60
2022-11-28T02:47:19.223Z,1006.63
2022-11-28T02:48:19.220Z,1006.65
2022-11-28T02:49:19.201Z,1006.61
2022-11-28T02:50:19.207Z,1006.63
2022-11-28T02:51:19.205Z,1006.73
2022-11-28T02:52:19.209Z,1006.70
2022-11-28T02:53:19.205Z,1006.71
2022-11-28T02:54:19.182Z,1006.76
2022-11-28T02:55:19.190Z,1006.71
2022-11-28T02:56:19.178Z,1006.69
2022-11-28T02:57:19.185Z,1006.69
2022-11-28T02:58:19.185Z,1006.66
2022-11-28T02:59:19.181Z,1006.59
2022-11-28T03:00:19.273Z,1006.60
2022-11-28T03:01:19.205Z,1006.58
2022-11-28T03:02:19.271Z,1006.55
2022-11-28T03:03:19.157Z,1006.59
2022-11-28T03:04:19.155Z,1006.54
2022-11-28T03:05:19.144Z,1006.62
2022-11-28T03:06:19.143Z,1006.63
2022-11-28T03:07:19.177Z,1006.55
2022-11-28T03:08:19.123Z,1006.65
2022-11-28T03:09:19.118Z,1006.57
2022-11-28T03:10:19.118Z,1006.49
2022-11-28T03:11:19.106Z,1006.48
2022-11-28T03:12:19.120Z,1006.47
2022-11-28T03:13:19.096Z,1006.41
2022-11-28T03:14:19.103Z,1006.42
2022-11-28T03:15:19.101Z,1006.41
2022-11-28T03:16:19.279Z,1006.37
2022-11-28T03:17:19.101Z,1006.46
2022-11-28T03:18:19.091Z,1006.45
2022-11-28T03:19:19.075Z,1006.42
2022-11-28T03:20:19.073Z,1006.42
2022-11-28T03:21:19.076Z,1006.42
2022-11-28T03:22:19.067Z,1006.47
2022-11-28T03:23:19.087Z,1006.50
2022-11-28T03:24:19.060Z,1006.52
2022-11-28T03:25:19.060Z,1006.50
2022-11-28T03:26:19.044Z,1006.45
2022-11-28T03:27:19.036Z,1006.48
2022-11-28T03:28:19.052Z,1006.46
2022-11-28T03:29:19.040Z,1006.43
2022-11-28T03:30:19.040Z,1006.50
2022-11-28T03:31:19.087Z,1006.45
2022-11-28T03:32:19.132Z,1006.40
2022-11-28T03:33:19.031Z,1006.37
2022-11-28T03:34:19.018Z,1006.28
2022-11-28T03:35:19.003Z,1006.20
2022-11-28T03:36:19.005Z,1006.15
2022-11-28T03:37:18.993Z,1006.14
2022-11-28T03:38:19.006Z,1006.14
2022-11-28T03:39:19.000Z,1006.20
2022-11-28T03:40:18.988Z,1006.19
2022-11-28T03:41:18.992Z,1006.17
2022-11-28T03:42:18.984Z,1006.20
2022-11-28T03:43:18.979Z,1006.24
2022-11-28T03:44:18.967Z,1006.21
2022-11-28T03:45:18.972Z,1006.28
2022-11-28T03:46:19.009Z,1006.30
2022-11-28T03:47:18.978Z,1006.32
2022-11-28T03:48:19.059Z,1006.32
2022-11-28T03:49:18.953Z,1006.39
2022-11-28T03:50:18.955Z,1006.40
2022-11-28T03:51:18.935Z,1006.41
2022-11-28T03:52:18.940Z,1006.36
2022-11-28T03:53:18.935Z,1006.37
2022-11-28T03:54:18.922Z,1006.36
2022-11-28T03:55:19.005Z,1006.26
2022-11-28T03:56:18.935Z,1006.23
2022-11-28T03:57:18.923Z,1006.26
2022-11-28T03:58:18.917Z,1006.24
2022-11-28T03:59:18.917Z,1006.26
2022-11-28T04:00:18.902Z,1006.24
2022-11-28T04:01:18.977Z,1006.21
2022-11-28T04:02:18.903Z,1006.24
2022-11-28T04:03:18.947Z,1006.19
2022-11-28T04:04:19.007Z,1006.21
2022-11-28T04:05:18.901Z,1006.28
2022-11-28T04:06:18.884Z,1006.26
2022-11-28T04:07:18.929Z,1006.25
2022-11-28T04:08:18.869Z,1006.23
2022-11-28T04:09:18.862Z,1006.23
2022-11-28T04:10:18.881Z,1006.22
2022-11-28T04:11:18.844Z,1006.19
2022-11-28T04:12:18.843Z,1006.17
2022-11-28T04:13:18.849Z,1006.21
2022-11-28T04:14:18.848Z,1006.22
2022-11-28T04:15:18.832Z,1006.19
2022-11-28T04:16:18.885Z,1006.22
2022-11-28T04:17:18.832Z,1006.21
2022-11-28T04:18:18.837Z,1006.19
2022-11-28T04:19:18.809Z,1006.22
2022-11-28T04:20:18.924Z,1006.28
2022-11-28T04:21:18.806Z,1006.34
2022-11-28T04:22:18.823Z,1006.34
2022-11-28T04:23:18.812Z,1006.28
2022-11-28T04:24:18.813Z,1006.32
2022-11-28T04:25:18.798Z,1006.29
2022-11-28T04:26:18.783Z,1006.23
2022-11-28T04:27:18.782Z,1006.21
2022-11-28T04:28:18.783Z,1006.21
2022-11-28T04:29:18.782Z,1006.17
2022-11-28T04:30:18.767Z,1006.20
2022-11-28T04:31:18.818Z,1006.23
2022-11-28T04:32:18.760Z,1006.22
2022-11-28T04:33:18.767Z,1006.15
2022-11-28T04:34:18.746Z,1006.07
2022-11-28T04:35:18.740Z,1006.10
2022-11-28T04:36:18.868Z,1006.10
2022-11-28T04:37:18.733Z,1006.11
2022-11-28T04:38:18.730Z,1006.17
2022-11-28T04:39:18.737Z,1006.19
2022-11-28T04:40:18.736Z,1006.22
2022-11-28T04:41:18.736Z,1006.27
2022-11-28T04:42:18.737Z,1006.30
2022-11-28T04:43:18.709Z,1006.22
2022-11-28T04:44:18.721Z,1006.22
2022-11-28T04:45:18.702Z,1006.23
2022-11-28T04:46:18.800Z,1006.21
2022-11-28T04:47:18.687Z,1006.17
2022-11-28T04:48:18.703Z,1006.20
2022-11-28T04:49:18.695Z,1006.19
2022-11-28T04:50:18.683Z,1006.19
2022-11-28T04:51:18.675Z,1006.23
2022-11-28T04:52:18.800Z,1006.24
2022-11-28T04:53:18.662Z,1006.22
2022-11-28T04:54:18.679Z,1006.21
2022-11-28T04:55:18.652Z,1006.13
2022-11-28T04:56:18.658Z,1006.09
2022-11-28T04:57:18.647Z,1006.11
2022-11-28T04:58:18.649Z,1006.20
2022-11-28T04:59:18.657Z,1006.29
2022-11-28T05:00:18.642Z,1006.32
2022-11-28T05:01:18.678Z,1006.36
2022-11-28T05:02:18.697Z,1006.35
2022-11-28T05:03:18.635Z,1006.31
2022-11-28T05:04:18.632Z,1006.31
2022-11-28T05:05:18.626Z,1006.33
2022-11-28T05:06:18.624Z,1006.38
2022-11-28T05:07:18.651Z,1006.41
2022-11-28T05:08:18.725Z,1006.34
2022-11-28T05:09:18.598Z,1006.31
2022-11-28T05:10:18.616Z,1006.33
2022-11-28T05:11:18.599Z,1006.33
2022-11-28T05:12:18.602Z,1006.31
2022-11-28T05:13:18.578Z,1006.34
2022-11-28T05:14:22.438Z,1006.34
2022-11-28T05:15:18.582Z,1006.33
2022-11-28T05:16:18.647Z,1006.30
2022-11-28T05:17:18.610Z,1006.35
2022-11-28T05:18:18.575Z,1006.29
2022-11-28T05:19:18.876Z,1006.36
2022-11-28T05:20:18.569Z,1006.37
2022-11-28T05:21:18.553Z,1006.39
2022-11-28T05:22:18.543Z,1006.38
2022-11-28T05:23:18.547Z,1006.45
2022-11-28T05:24:18.642Z,1006.47
2022-11-28T05:25:18.552Z,1006.42
2022-11-28T05:26:18.524Z,1006.44
2022-11-28T05:27:21.151Z,1006.46
2022-11-28T05:28:18.530Z,1006.48
2022-11-28T05:29:18.534Z,1006.49
2022-11-28T05:30:18.521Z,1006.52
2022-11-28T05:31:18.581Z,1006.50
2022-11-28T05:32:18.497Z,1006.52
2022-11-28T05:33:18.912Z,1006.54
2022-11-28T05:34:18.519Z,1006.57
2022-11-28T05:35:18.494Z,1006.62
2022-11-28T05:36:18.487Z,1006.59
2022-11-28T05:37:18.500Z,1006.64
2022-11-28T05:38:18.591Z,1006.65
2022-11-28T05:39:19.287Z,1006.66
2022-11-28T05:40:18.575Z,1006.66
2022-11-28T05:41:18.486Z,1006.64
2022-11-28T05:42:18.468Z,1006.61
2022-11-28T05:43:18.460Z,1006.58
2022-11-28T05:44:21.572Z,1006.59
2022-11-28T05:45:18.460Z,1006.56
2022-11-28T05:46:18.504Z,1006.59
2022-11-28T05:47:21.077Z,1006.51
2022-11-28T05:48:18.436Z,1006.55
2022-11-28T05:49:21.455Z,1006.51
2022-11-28T05:50:18.431Z,1006.52
2022-11-28T05:51:18.441Z,1006.53
2022-11-28T05:52:18.411Z,1006.47
2022-11-28T05:53:18.419Z,1006.49
2022-11-28T05:54:18.401Z,1006.47
2022-11-28T05:55:18.419Z,1006.44
2022-11-28T05:56:18.505Z,1006.42
2022-11-28T05:57:18.403Z,1006.43
2022-11-28T05:58:18.390Z,1006.44
2022-11-28T05:59:18.399Z,1006.44
2022-11-28T06:00:18.399Z,1006.40
2022-11-28T06:01:18.375Z,1006.40
2022-11-28T06:02:18.403Z,1006.38
2022-11-28T06:03:18.375Z,1006.38
2022-11-28T06:04:18.386Z,1006.34
2022-11-28T06:05:41.017Z,1006.34
2022-11-28T06:06:18.357Z,1006.34
2022-11-28T06:07:18.373Z,1006.34
2022-11-28T06:08:18.354Z,1006.33
2022-11-28T06:09:20.943Z,1006.36
2022-11-28T06:10:18.344Z,1006.37
2022-11-28T06:11:18.328Z,1006.33
2022-11-28T06:12:18.622Z,1006.32
2022-11-28T06:13:18.331Z,1006.34
2022-11-28T06:14:18.317Z,1006.33
2022-11-28T06:15:18.323Z,1006.32
2022-11-28T06:16:18.379Z,1006.35
2022-11-28T06:17:18.308Z,1006.34
2022-11-28T06:18:18.323Z,1006.34
2022-11-28T06:19:18.299Z,1006.30
2022-11-28T06:20:18.294Z,1006.33
2022-11-28T06:21:18.301Z,1006.25
2022-11-28T06:22:18.300Z,1006.24
2022-11-28T06:23:18.306Z,1006.18
2022-11-28T06:24:18.280Z,1006.22
2022-11-28T06:25:18.278Z,1006.15
2022-11-28T06:26:18.273Z,1006.11
2022-11-28T06:27:18.275Z,1006.10
2022-11-28T06:28:18.376Z,1006.05
2022-11-28T06:29:18.263Z,1006.01
2022-11-28T06:30:18.253Z,1006.06
2022-11-28T06:31:18.306Z,1006.08
2022-11-28T06:32:21.985Z,1006.15
2022-11-28T06:33:18.248Z,1006.15
2022-11-28T06:34:18.221Z,1006.13
2022-11-28T06:35:18.236Z,1006.16
2022-11-28T06:36:18.235Z,1006.17
2022-11-28T06:37:18.237Z,1006.16
2022-11-28T06:38:18.208Z,1006.15
2022-11-28T06:39:18.222Z,1006.16
2022-11-28T06:40:18.208Z,1006.16
2022-11-28T06:41:18.206Z,1006.18
2022-11-28T06:42:18.202Z,1006.17
2022-11-28T06:43:18.192Z,1006.22
2022-11-28T06:44:18.301Z,1006.18
2022-11-28T06:45:18.187Z,1006.23
2022-11-28T06:46:18.274Z,1006.22
2022-11-28T06:47:18.175Z,1006.24
2022-11-28T06:48:18.180Z,1006.22
2022-11-28T06:49:18.183Z,1006.19
2022-11-28T06:50:18.170Z,1006.23
2022-11-28T06:51:18.180Z,1006.22
2022-11-28T06:52:18.168Z,1006.21
2022-11-28T06:53:18.158Z,1006.23
2022-11-28T06:54:18.159Z,1006.21
2022-11-28T06:55:18.155Z,1006.19
2022-11-28T06:56:18.177Z,1006.19
2022-11-28T06:57:18.138Z,1006.25
2022-11-28T06:58:18.137Z,1006.23
2022-11-28T06:59:18.152Z,1006.28
2022-11-28T07:00:18.249Z,1006.27
2022-11-28T07:01:18.325Z,1006.30
2022-11-28T07:02:18.230Z,1006.27
2022-11-28T07:03:18.123Z,1006.34
2022-11-28T07:04:18.122Z,1006.34
2022-11-28T07:05:18.124Z,1006.37
2022-11-28T07:06:18.111Z,1006.40
2022-11-28T07:07:18.152Z,1006.39
2022-11-28T07:08:18.184Z,1006.38
2022-11-28T07:09:18.102Z,1006.37
2022-11-28T07:10:18.090Z,1006.43
2022-11-28T07:11:18.095Z,1006.36
2022-11-28T07:12:18.095Z,1006.39
2022-11-28T07:13:18.099Z,1006.41
2022-11-28T07:14:18.099Z,1006.43
2022-11-28T07:15:18.096Z,1006.46
2022-11-28T07:16:18.247Z,1006.47
2022-11-28T07:17:18.095Z,1006.45
2022-11-28T07:18:18.077Z,1006.44
2022-11-28T07:19:18.071Z,1006.46
2022-11-28T07:20:18.053Z,1006.45
2022-11-28T07:21:18.084Z,1006.43
2022-11-28T07:22:18.064Z,1006.43
2022-11-28T07:23:18.054Z,1006.42
2022-11-28T07:24:18.063Z,1006.48
2022-11-28T07:25:18.045Z,1006.47
2022-11-28T07:26:18.059Z,1006.49
2022-11-28T07:27:18.063Z,1006.50
2022-11-28T07:28:22.968Z,1006.51
2022-11-28T07:29:18.048Z,1006.51
2022-11-28T07:30:18.037Z,1006.52
2022-11-28T07:31:18.071Z,1006.51
2022-11-28T07:32:18.150Z,1006.47
2022-11-28T07:33:18.040Z,1006.49
2022-11-28T07:34:18.025Z,1006.51
2022-11-28T07:35:18.030Z,1006.53
2022-11-28T07:36:18.007Z,1006.48
2022-11-28T07:37:18.005Z,1006.50
2022-11-28T07:38:17.999Z,1006.48
2022-11-28T07:39:18.010Z,1006.50
2022-11-28T07:40:17.990Z,1006.52
2022-11-28T07:41:19.643Z,1006.50
2022-11-28T07:42:18.000Z,1006.52
2022-11-28T07:43:18.000Z,1006.54
2022-11-28T07:44:17.982Z,1006.50
2022-11-28T07:45:17.987Z,1006.52
2022-11-28T07:46:18.042Z,1006.45
2022-11-28T07:47:17.980Z,1006.48
2022-11-28T07:48:17.982Z,1006.50
2022-11-28T07:49:17.971Z,1006.50
2022-11-28T07:50:17.954Z,1006.54
2022-11-28T07:51:17.967Z,1006.56
2022-11-28T07:52:17.948Z,1006.55
2022-11-28T07:53:17.967Z,1006.51
2022-11-28T07:54:17.947Z,1006.52
2022-11-28T07:55:17.947Z,1006.50
2022-11-28T07:56:17.961Z,1006.52
2022-11-28T07:57:17.968Z,1006.50
2022-11-28T07:58:17.946Z,1006.55
2022-11-28T07:59:17.946Z,1006.53
2022-11-28T08:00:17.921Z,1006.54
2022-11-28T08:01:17.936Z,1006.58
2022-11-28T08:02:17.962Z,1006.50
2022-11-28T08:03:17.930Z,1006.55
2022-11-28T08:04:18.018Z,1006.56
2022-11-28T08:05:17.925Z,1006.57
2022-11-28T08:06:17.926Z,1006.54
2022-11-28T08:07:17.941Z,1006.55
2022-11-28T08:08:17.899Z,1006.54
2022-11-28T08:09:17.900Z,1006.57
2022-11-28T08:10:17.893Z,1006.53
2022-11-28T08:11:17.927Z,1006.53
2022-11-28T08:12:17.906Z,1006.54
2022-11-28T08:13:17.881Z,1006.54
2022-11-28T08:14:17.876Z,1006.50
2022-11-28T08:15:17.891Z,1006.54
2022-11-28T08:16:17.956Z,1006.50
2022-11-28T08:17:17.876Z,1006.55
2022-11-28T08:18:17.874Z,1006.54
2022-11-28T08:19:19.485Z,1006.56
2022-11-28T08:20:17.914Z,1006.59
2022-11-28T08:21:17.876Z,1006.52
2022-11-28T08:22:17.847Z,1006.59
2022-11-28T08:23:17.863Z,1006.56
2022-11-28T08:24:17.841Z,1006.55
2022-11-28T08:25:17.854Z,1006.53
2022-11-28T08:26:17.838Z,1006.52
2022-11-28T08:27:17.841Z,1006.55
2022-11-28T08:28:17.842Z,1006.53
2022-11-28T08:29:17.848Z,1006.51
2022-11-28T08:30:17.842Z,1006.55
2022-11-28T08:31:17.941Z,1006.56
2022-11-28T08:32:17.812Z,1006.51
2022-11-28T08:33:17.811Z,1006.54
2022-11-28T08:34:17.817Z,1006.51
2022-11-28T08:35:17.824Z,1006.52
2022-11-28T08:36:17.835Z,1006.48
2022-11-28T08:37:17.814Z,1006.50
2022-11-28T08:38:17.809Z,1006.52
2022-11-28T08:39:25.465Z,1006.48
2022-11-28T08:40:17.801Z,1006.54
2022-11-28T08:41:17.791Z,1006.50
2022-11-28T08:42:17.785Z,1006.49
2022-11-28T08:43:17.795Z,1006.52
2022-11-28T08:44:17.788Z,1006.52
2022-11-28T08:45:17.770Z,1006.54
2022-11-28T08:46:17.815Z,1006.58
2022-11-28T08:47:17.769Z,1006.58
2022-11-28T08:48:17.758Z,1006.58
2022-11-28T08:49:17.758Z,1006.60
2022-11-28T08:50:17.749Z,1006.54
2022-11-28T08:51:17.746Z,1006.51
2022-11-28T08:52:17.760Z,1006.54
2022-11-28T08:53:18.466Z,1006.55
2022-11-28T08:54:17.735Z,1006.51
2022-11-28T08:55:19.961Z,1006.53
2022-11-28T08:56:17.725Z,1006.47
2022-11-28T08:57:17.741Z,1006.50
2022-11-28T08:58:17.740Z,1006.56
2022-11-28T08:59:17.741Z,1006.52
2022-11-28T09:00:17.721Z,1006.56
2022-11-28T09:01:17.770Z,1006.56
2022-11-28T09:02:19.874Z,1006.53
2022-11-28T09:03:17.715Z,1006.57
2022-11-28T09:04:17.829Z,1006.52
2022-11-28T09:05:17.697Z,1006.52
2022-11-28T09:06:17.707Z,1006.52
2022-11-28T09:07:17.744Z,1006.52
2022-11-28T09:08:17.744Z,1006.52
2022-11-28T09:09:17.696Z,1006.54
2022-11-28T09:10:17.675Z,1006.54
2022-11-28T09:11:17.688Z,1006.56
2022-11-28T09:12:17.664Z,1006.53
2022-11-28T09:13:17.688Z,1006.52
2022-11-28T09:14:17.677Z,1006.52
2022-11-28T09:15:17.660Z,1006.55
2022-11-28T09:16:17.834Z,1006.58
2022-11-28T09:17:17.724Z,1006.57
2022-11-28T09:18:17.657Z,1006.55
2022-11-28T09:19:17.645Z,1006.59
2022-11-28T09:20:17.646Z,1006.61
2022-11-28T09:21:17.648Z,1006.58
2022-11-28T09:22:17.630Z,1006.60
2022-11-28T09:23:17.650Z,1006.64
2022-11-28T09:24:17.647Z,1006.62
2022-11-28T09:25:17.638Z,1006.64
2022-11-28T09:26:17.626Z,1006.65
2022-11-28T09:27:17.637Z,1006.64
2022-11-28T09:28:17.605Z,1006.67
2022-11-28T09:29:17.622Z,1006.73
2022-11-28T09:30:17.603Z,1006.67
2022-11-28T09:31:17.665Z,1006.70
2022-11-28T09:32:17.596Z,1006.73
2022-11-28T09:33:17.597Z,1006.69
2022-11-28T09:34:17.597Z,1006.75
2022-11-28T09:35:17.585Z,1006.76
2022-11-28T09:36:17.602Z,1006.71
2022-11-28T09:37:17.588Z,1006.76
2022-11-28T09:38:17.587Z,1006.75
2022-11-28T09:39:17.568Z,1006.69
2022-11-28T09:40:17.975Z,1006.74
2022-11-28T09:41:17.565Z,1006.75
2022-11-28T09:42:17.555Z,1006.76
2022-11-28T09:43:17.568Z,1006.77
2022-11-28T09:44:17.560Z,1006.77
2022-11-28T09:45:17.549Z,1006.72
2022-11-28T09:46:17.587Z,1006.72
2022-11-28T09:47:17.562Z,1006.72
2022-11-28T09:48:17.549Z,1006.76
2022-11-28T09:49:17.561Z,1006.81
2022-11-28T09:50:17.526Z,1006.73
2022-11-28T09:51:17.543Z,1006.70
2022-11-28T09:52:17.555Z,1006.69
2022-11-28T09:53:17.523Z,1006.73
2022-11-28T09:54:17.537Z,1006.75
2022-11-28T09:55:17.516Z,1006.71
2022-11-28T09:56:17.545Z,1006.73
2022-11-28T09:57:17.514Z,1006.70
2022-11-28T09:58:17.496Z,1006.70
2022-11-28T09:59:17.502Z,1006.67
2022-11-28T10:00:17.508Z,1006.63
2022-11-28T10:01:17.502Z,1006.64
2022-11-28T10:02:17.497Z,1006.66
2022-11-28T10:03:17.545Z,1006.65
2022-11-28T10:04:17.645Z,1006.66
2022-11-28T10:05:17.484Z,1006.63
2022-11-28T10:06:17.504Z,1006.65
2022-11-28T10:07:17.551Z,1006.65
2022-11-28T10:08:17.461Z,1006.65
2022-11-28T10:09:17.466Z,1006.66
2022-11-28T10:10:17.547Z,1006.67
2022-11-28T10:11:17.460Z,1006.70
2022-11-28T10:12:17.479Z,1006.67
2022-11-28T10:13:17.457Z,1006.71
2022-11-28T10:14:17.465Z,1006.68
2022-11-28T10:15:17.449Z,1006.69
2022-11-28T10:16:17.505Z,1006.64
2022-11-28T10:17:17.476Z,1006.63
2022-11-28T10:18:17.426Z,1006.63
2022-11-28T10:19:46.045Z,1006.61
2022-11-28T10:20:17.500Z,1006.58
2022-11-28T10:21:17.415Z,1006.60
2022-11-28T10:22:17.415Z,1006.60
2022-11-28T10:23:17.418Z,1006.62
2022-11-28T10:24:17.417Z,1006.57
2022-11-28T10:25:17.391Z,1006.60
2022-11-28T10:26:17.398Z,1006.59
2022-11-28T10:27:22.466Z,1006.61
2022-11-28T10:28:17.425Z,1006.59
2022-11-28T10:29:17.391Z,1006.65
2022-11-28T10:30:17.455Z,1006.64
2022-11-28T10:31:17.433Z,1006.61
2022-11-28T10:32:17.381Z,1006.64
2022-11-28T10:33:19.434Z,1006.71
2022-11-28T10:34:17.367Z,1006.68
2022-11-28T10:35:17.382Z,1006.68
2022-11-28T10:36:17.351Z,1006.67
2022-11-28T10:37:17.373Z,1006.66
2022-11-28T10:38:17.366Z,1006.65
2022-11-28T10:39:17.350Z,1006.63
2022-11-28T10:40:17.345Z,1006.63
2022-11-28T10:41:17.349Z,1006.66
2022-11-28T10:42:17.361Z,1006.63
2022-11-28T10:43:17.348Z,1006.66
2022-11-28T10:44:21.517Z,1006.61
2022-11-28T10:45:17.324Z,1006.66
2022-11-28T10:46:17.382Z,1006.64
2022-11-28T10:47:17.333Z,1006.66
2022-11-28T10:48:41.703Z,1006.63
2022-11-28T10:49:17.324Z,1006.62
2022-11-28T10:50:17.314Z,1006.63
2022-11-28T10:51:17.309Z,1006.67
2022-11-28T10:52:17.294Z,1006.62
2022-11-28T10:53:17.314Z,1006.62
2022-11-28T10:54:17.303Z,1006.64
2022-11-28T10:55:17.287Z,1006.59
2022-11-28T10:56:17.278Z,1006.58
2022-11-28T10:57:17.303Z,1006.61
2022-11-28T10:58:17.270Z,1006.59
2022-11-28T10:59:17.272Z,1006.61
2022-11-28T11:00:17.293Z,1006.63
2022-11-28T11:01:17.372Z,1006.60
2022-11-28T11:02:17.259Z,1006.66
2022-11-28T11:03:17.257Z,1006.61
2022-11-28T11:04:17.310Z,1006.58
2022-11-28T11:05:17.266Z,1006.61
2022-11-28T11:06:17.248Z,1006.58
2022-11-28T11:07:20.974Z,1006.61
2022-11-28T11:08:17.276Z,1006.63
2022-11-28T11:09:17.237Z,1006.60
2022-11-28T11:10:17.243Z,1006.58
2022-11-28T11:11:17.232Z,1006.59
2022-11-28T11:12:17.241Z,1006.62
2022-11-28T11:13:17.217Z,1006.62
2022-11-28T11:14:17.231Z,1006.59
2022-11-28T11:15:17.213Z,1006.59
2022-11-28T11:16:17.314Z,1006.57
2022-11-28T11:17:17.218Z,1006.61
2022-11-28T11:18:17.211Z,1006.60
2022-11-28T11:19:17.208Z,1006.63
2022-11-28T11:20:17.199Z,1006.65
2022-11-28T11:21:17.190Z,1006.66
2022-11-28T11:22:17.179Z,1006.63
2022-11-28T11:23:17.195Z,1006.67
2022-11-28T11:24:17.187Z,1006.65
2022-11-28T11:25:17.170Z,1006.69
2022-11-28T11:26:17.207Z,1006.66
2022-11-28T11:27:17.172Z,1006.64
2022-11-28T11:28:17.165Z,1006.61
2022-11-28T11:29:17.178Z,1006.66
2022-11-28T11:30:17.159Z,1006.63
2022-11-28T11:31:17.330Z,1006.61
2022-11-28T11:32:17.185Z,1006.61
2022-11-28T11:33:17.144Z,1006.58
2022-11-28T11:34:17.148Z,1006.67
2022-11-28T11:35:17.135Z,1006.62
2022-11-28T11:36:17.151Z,1006.64
2022-11-28T11:37:17.144Z,1006.60
2022-11-28T11:38:17.122Z,1006.60
2022-11-28T11:39:17.139Z,1006.61
2022-11-28T11:40:17.117Z,1006.65
2022-11-28T11:41:17.116Z,1006.59
2022-11-28T11:42:17.122Z,1006.62
2022-11-28T11:43:17.104Z,1006.62
2022-11-28T11:44:17.100Z,1006.67
2022-11-28T11:45:17.113Z,1006.65
2022-11-28T11:46:17.133Z,1006.66
2022-11-28T11:47:17.105Z,1006.63
2022-11-28T11:48:17.176Z,1006.67
2022-11-28T11:49:17.099Z,1006.70
2022-11-28T11:50:17.090Z,1006.68
2022-11-28T11:51:17.073Z,1006.70
2022-11-28T11:52:17.080Z,1006.68
2022-11-28T11:53:17.089Z,1006.70
2022-11-28T11:54:17.074Z,1006.72
2022-11-28T11:55:17.071Z,1006.67
2022-11-28T11:56:17.058Z,1006.70
2022-11-28T11:57:32.701Z,1006.69
2022-11-28T11:58:17.046Z,1006.64
2022-11-28T11:59:17.056Z,1006.65
2022-11-28T12:00:17.065Z,1006.65
2022-11-28T12:01:17.056Z,1006.64
2022-11-28T12:02:17.060Z,1006.66
2022-11-28T12:03:17.191Z,1006.64
2022-11-28T12:04:37.443Z,1006.65
2022-11-28T12:05:17.023Z,1006.67